sensor_id;sensor_type;location;lat;lon;timestamp;pressure;altitude;pressure_sealevel;temperature;humidity
72210;BME280;60113;48.762;12.302;2022-08-26T00:01:14;97027.00;;;15.90;69.56
72210;BME280;60113;48.762;12.302;2022-08-26T00:03:40;97027.00;;;15.90;70.97
72210;BME280;60113;48.762;12.302;2022-08-26T00:06:06;97021.69;;;15.90;70.33
72210;BME280;60113;48.762;12.302;2022-08-26T00:08:32;97015.44;;;15.91;69.43
72210;BME280;60113;48.762;12.302;2022-08-26T00:10:57;97025.88;;;15.92;69.16
72210;BME280;60113;48.762;12.302;2022-08-26T00:13:23;97022.53;;;15.90;74.10
72210;BME280;60113;48.762;12.302;2022-08-26T00:15:49;97023.38;;;15.91;70.23
72210;BME280;60113;48.762;12.302;2022-08-26T00:18:16;97012.94;;;15.89;70.59
72210;BME280;60113;48.762;12.302;2022-08-26T00:20:41;97010.13;;;15.91;70.80
72210;BME280;60113;48.762;12.302;2022-08-26T00:23:07;97012.47;;;15.94;69.47
72210;BME280;60113;48.762;12.302;2022-08-26T00:25:32;97017.78;;;15.94;71.75
72210;BME280;60113;48.762;12.302;2022-08-26T00:27:58;97016.78;;;15.95;70.92
72210;BME280;60113;48.762;12.302;2022-08-26T00:30:27;97010.63;;;15.94;71.24
72210;BME280;60113;48.762;12.302;2022-08-26T00:32:54;97018.56;;;15.94;72.24
72210;BME280;60113;48.762;12.302;2022-08-26T00:35:21;97012.31;;;15.95;70.77
72210;BME280;60113;48.762;12.302;2022-08-26T00:37:47;97013.28;;;15.94;72.75
72210;BME280;60113;48.762;12.302;2022-08-26T00:40:16;97005.34;;;15.94;71.71
72210;BME280;60113;48.762;12.302;2022-08-26T00:42:42;97012.31;;;15.95;70.69
72210;BME280;60113;48.762;12.302;2022-08-26T00:45:08;97005.34;;;15.94;71.58
72210;BME280;60113;48.762;12.302;2022-08-26T00:47:37;97017.63;;;15.95;71.41
72210;BME280;60113;48.762;12.302;2022-08-26T00:50:12;97012.47;;;15.94;72.09
72210;BME280;60113;48.762;12.302;2022-08-26T00:52:39;97005.81;;;15.90;72.14
72210;BME280;60113;48.762;12.302;2022-08-26T00:55:10;97007.63;;;15.89;71.54
72210;BME280;60113;48.762;12.302;2022-08-26T00:57:38;97007.78;;;15.87;72.02
72210;BME280;60113;48.762;12.302;2022-08-26T01:00:09;97015.75;;;15.87;72.34
72210;BME280;60113;48.762;12.302;2022-08-26T01:02:36;97005.31;;;15.86;70.48
72210;BME280;60113;48.762;12.302;2022-08-26T01:05:03;97015.06;;;15.85;72.47
72210;BME280;60113;48.762;12.302;2022-08-26T01:07:31;97002.66;;;15.86;71.08
72210;BME280;60113;48.762;12.302;2022-08-26T01:10:02;97005.31;;;15.86;70.67
72210;BME280;60113;48.762;12.302;2022-08-26T01:12:32;97008.75;;;15.86;72.09
72210;BME280;60113;48.762;12.302;2022-08-26T01:15:01;97012.41;;;15.85;71.03
72210;BME280;60113;48.762;12.302;2022-08-26T01:17:27;97003.63;;;15.85;71.63
72210;BME280;60113;48.762;12.302;2022-08-26T01:20:03;97004.47;;;15.85;75.98
72210;BME280;60113;48.762;12.302;2022-08-26T01:23:24;97011.72;;;15.83;71.07
72210;BME280;60113;48.762;12.302;2022-08-26T01:25:33;97017.19;;;15.82;71.73
72210;BME280;60113;48.762;12.302;2022-08-26T01:28:04;97010.22;;;15.81;72.21
72210;BME280;60113;48.762;12.302;2022-08-26T01:30:32;97009.38;;;15.80;71.76
72210;BME280;60113;48.762;12.302;2022-08-26T01:33:02;97007.75;;;15.79;74.51
72210;BME280;60113;48.762;12.302;2022-08-26T01:35:29;97012.34;;;15.77;72.23
72210;BME280;60113;48.762;12.302;2022-08-26T01:37:55;97014.34;;;15.75;72.25
72210;BME280;60113;48.762;12.302;2022-08-26T01:40:27;97010.16;;;15.72;73.02
72210;BME280;60113;48.762;12.302;2022-08-26T01:42:57;97010.47;;;15.69;72.71
72210;BME280;60113;48.762;12.302;2022-08-26T01:45:27;97015.63;;;15.71;73.09
72210;BME280;60113;48.762;12.302;2022-08-26T01:47:58;97015.63;;;15.71;72.49
72210;BME280;60113;48.762;12.302;2022-08-26T01:50:30;97010.47;;;15.69;73.43
72210;BME280;60113;48.762;12.302;2022-08-26T01:53:00;97014.97;;;15.69;71.39
72210;BME280;60113;48.762;12.302;2022-08-26T01:55:27;97015.28;;;15.66;73.20
72210;BME280;60113;48.762;12.302;2022-08-26T01:57:56;97013.75;;;15.63;73.25
72210;BME280;60113;48.762;12.302;2022-08-26T02:00:23;97014.75;;;15.62;73.21
72210;BME280;60113;48.762;12.302;2022-08-26T02:02:51;97013.91;;;15.61;71.84
72210;BME280;60113;48.762;12.302;2022-08-26T02:05:40;97010.59;;;15.59;71.94
72210;BME280;60113;48.762;12.302;2022-08-26T02:08:06;97014.38;;;15.57;72.13
72210;BME280;60113;48.762;12.302;2022-08-26T02:10:36;97019.97;;;15.54;73.25
72210;BME280;60113;48.762;12.302;2022-08-26T02:13:07;97013.03;;;15.53;72.70
72210;BME280;60113;48.762;12.302;2022-08-26T02:15:33;97023.75;;;15.51;71.59
72210;BME280;60113;48.762;12.302;2022-08-26T02:18:03;97017.63;;;15.50;72.70
72210;BME280;60113;48.762;12.302;2022-08-26T02:20:30;97010.69;;;15.49;71.69
72210;BME280;60113;48.762;12.302;2022-08-26T02:22:56;97012.50;;;15.49;72.76
72210;BME280;60113;48.762;12.302;2022-08-26T02:25:30;97012.63;;;15.47;73.52
72210;BME280;60113;48.762;12.302;2022-08-26T02:27:57;97014.63;;;15.45;71.36
72210;BME280;60113;48.762;12.302;2022-08-26T02:30:28;97012.13;;;15.44;73.07
72210;BME280;60113;48.762;12.302;2022-08-26T02:33:00;97014.09;;;15.42;72.32
72210;BME280;60113;48.762;12.302;2022-08-26T02:35:33;97011.75;;;15.38;70.90
72210;BME280;60113;48.762;12.302;2022-08-26T02:38:02;97007.59;;;15.36;73.00
72210;BME280;60113;48.762;12.302;2022-08-26T02:40:32;97006.91;;;15.34;73.61
72210;BME280;60113;48.762;12.302;2022-08-26T02:42:59;97009.72;;;15.32;75.50
72210;BME280;60113;48.762;12.302;2022-08-26T02:45:26;97008.91;;;15.32;71.76
72210;BME280;60113;48.762;12.302;2022-08-26T02:47:53;97004.41;;;15.32;71.89
72210;BME280;60113;48.762;12.302;2022-08-26T02:50:21;97000.13;;;15.31;73.18
72210;BME280;60113;48.762;12.302;2022-08-26T02:52:47;97005.41;;;15.31;73.77
72210;BME280;60113;48.762;12.302;2022-08-26T02:55:13;96992.34;;;15.30;72.46
72210;BME280;60113;48.762;12.302;2022-08-26T02:57:41;97000.28;;;15.30;71.44
72210;BME280;60113;48.762;12.302;2022-08-26T03:00:12;96995.97;;;15.29;74.33
72210;BME280;60113;48.762;12.302;2022-08-26T03:02:39;96992.50;;;15.28;73.04
72210;BME280;60113;48.762;12.302;2022-08-26T03:05:08;97002.78;;;15.31;74.73
72210;BME280;60113;48.762;12.302;2022-08-26T03:07:34;97000.81;;;15.33;75.42
72210;BME280;60113;48.762;12.302;2022-08-26T03:09:59;97003.13;;;15.36;75.95
72210;BME280;60113;48.762;12.302;2022-08-26T03:12:25;96992.38;;;15.38;74.92
72210;BME280;60113;48.762;12.302;2022-08-26T03:14:52;96996.72;;;15.39;74.25
72210;BME280;60113;48.762;12.302;2022-08-26T03:17:18;97001.00;;;15.40;75.34
72210;BME280;60113;48.762;12.302;2022-08-26T03:19:43;96994.88;;;15.40;75.67
72210;BME280;60113;48.762;12.302;2022-08-26T03:22:13;96994.88;;;15.40;74.80
72210;BME280;60113;48.762;12.302;2022-08-26T03:24:38;96990.41;;;15.40;75.58
72210;BME280;60113;48.762;12.302;2022-08-26T03:27:09;96987.63;;;15.42;74.94
72210;BME280;60113;48.762;12.302;2022-08-26T03:29:38;96991.09;;;15.42;74.67
72210;BME280;60113;48.762;12.302;2022-08-26T03:32:22;96994.25;;;15.46;74.63
72210;BME280;60113;48.762;12.302;2022-08-26T03:34:48;96989.81;;;15.46;74.77
72210;BME280;60113;48.762;12.302;2022-08-26T03:37:14;96990.50;;;15.48;75.88
72210;BME280;60113;48.762;12.302;2022-08-26T03:39:40;96990.19;;;15.52;74.90
72210;BME280;60113;48.762;12.302;2022-08-26T03:42:06;96986.53;;;15.53;74.73
72210;BME280;60113;48.762;12.302;2022-08-26T03:44:35;96988.03;;;15.55;73.57
72210;BME280;60113;48.762;12.302;2022-08-26T03:47:01;96992.38;;;15.56;73.45
72210;BME280;60113;48.762;12.302;2022-08-26T03:49:27;96983.44;;;15.57;72.75
72210;BME280;60113;48.762;12.302;2022-08-26T03:51:53;96981.63;;;15.58;74.07
72210;BME280;60113;48.762;12.302;2022-08-26T03:54:19;96979.63;;;15.60;73.19
72210;BME280;60113;48.762;12.302;2022-08-26T03:56:44;96989.41;;;15.59;74.30
72210;BME280;60113;48.762;12.302;2022-08-26T03:59:10;96984.13;;;15.59;72.88
72210;BME280;60113;48.762;12.302;2022-08-26T04:01:36;96981.47;;;15.59;73.75
72210;BME280;60113;48.762;12.302;2022-08-26T04:04:03;96989.25;;;15.61;74.17
72210;BME280;60113;48.762;12.302;2022-08-26T04:06:35;96983.97;;;15.61;73.27
72210;BME280;60113;48.762;12.302;2022-08-26T04:09:05;96978.66;;;15.61;74.90
72210;BME280;60113;48.762;12.302;2022-08-26T04:11:34;96986.59;;;15.61;76.29
72210;BME280;60113;48.762;12.302;2022-08-26T04:14:04;96986.59;;;15.61;75.29
72210;BME280;60113;48.762;12.302;2022-08-26T04:16:32;96985.75;;;15.60;75.83
72210;BME280;60113;48.762;12.302;2022-08-26T04:18:58;96981.63;;;15.58;75.59
72210;BME280;60113;48.762;12.302;2022-08-26T04:21:25;96979.94;;;15.57;75.94
72210;BME280;60113;48.762;12.302;2022-08-26T04:23:51;96979.94;;;15.57;73.37
72210;BME280;60113;48.762;12.302;2022-08-26T04:26:19;96989.72;;;15.56;75.45
72210;BME280;60113;48.762;12.302;2022-08-26T04:28:50;96982.75;;;15.55;75.83
72210;BME280;60113;48.762;12.302;2022-08-26T04:31:17;96983.59;;;15.56;74.86
72210;BME280;60113;48.762;12.302;2022-08-26T04:33:44;96976.63;;;15.55;75.72
72210;BME280;60113;48.762;12.302;2022-08-26T04:36:10;96979.13;;;15.56;74.87
72210;BME280;60113;48.762;12.302;2022-08-26T04:38:36;96981.63;;;15.58;75.44
72210;BME280;60113;48.762;12.302;2022-08-26T04:41:02;96983.13;;;15.60;74.38
72210;BME280;60113;48.762;12.302;2022-08-26T04:43:29;96982.13;;;15.61;75.63
72210;BME280;60113;48.762;12.302;2022-08-26T04:46:00;96985.44;;;15.63;77.29
72210;BME280;60113;48.762;12.302;2022-08-26T04:48:28;96982.66;;;15.65;75.42
72210;BME280;60113;48.762;12.302;2022-08-26T04:50:54;96988.63;;;15.67;75.10
72210;BME280;60113;48.762;12.302;2022-08-26T04:53:20;96982.88;;;15.72;76.61
72210;BME280;60113;48.762;12.302;2022-08-26T04:55:46;96980.72;;;15.75;76.12
72210;BME280;60113;48.762;12.302;2022-08-26T04:58:19;96989.19;;;15.79;74.23
72210;BME280;60113;48.762;12.302;2022-08-26T05:00:46;96985.25;;;15.83;76.26
72210;BME280;60113;48.762;12.302;2022-08-26T05:03:16;96980.47;;;15.87;76.85
72210;BME280;60113;48.762;12.302;2022-08-26T05:05:43;96989.09;;;15.89;75.30
72210;BME280;60113;48.762;12.302;2022-08-26T05:08:11;96990.44;;;15.93;75.47
72210;BME280;60113;48.762;12.302;2022-08-26T05:10:42;96987.34;;;15.98;75.86
72210;BME280;60113;48.762;12.302;2022-08-26T05:13:08;96991.47;;;16.00;74.72
72210;BME280;60113;48.762;12.302;2022-08-26T05:15:35;97005.25;;;16.04;75.96
72210;BME280;60113;48.762;12.302;2022-08-26T05:18:05;97003.94;;;16.08;75.17
72210;BME280;60113;48.762;12.302;2022-08-26T05:20:31;97003.94;;;16.08;75.02
72210;BME280;60113;48.762;12.302;2022-08-26T05:23:00;97006.13;;;16.13;74.28
72210;BME280;60113;48.762;12.302;2022-08-26T05:25:27;97009.31;;;16.17;74.75
72210;BME280;60113;48.762;12.302;2022-08-26T05:27:52;97000.72;;;16.23;73.49
72210;BME280;60113;48.762;12.302;2022-08-26T05:30:18;96996.75;;;16.27;74.53
72210;BME280;60113;48.762;12.302;2022-08-26T05:32:46;97002.41;;;16.32;74.71
72210;BME280;60113;48.762;12.302;2022-08-26T05:35:12;97008.88;;;16.38;76.10
72210;BME280;60113;48.762;12.302;2022-08-26T05:37:37;97000.28;;;16.44;74.82
72210;BME280;60113;48.762;12.302;2022-08-26T05:40:04;96994.34;;;16.50;75.42
72210;BME280;60113;48.762;12.302;2022-08-26T05:42:31;96996.34;;;16.57;73.39
72210;BME280;60113;48.762;12.302;2022-08-26T05:44:57;96999.38;;;16.62;73.93
72210;BME280;60113;48.762;12.302;2022-08-26T05:47:23;96998.53;;;16.70;73.76
72210;BME280;60113;48.762;12.302;2022-08-26T05:49:49;97002.03;;;16.79;73.67
72210;BME280;60113;48.762;12.302;2022-08-26T05:52:15;97001.22;;;16.86;74.91
72210;BME280;60113;48.762;12.302;2022-08-26T05:54:40;97003.06;;;16.94;76.53
72210;BME280;60113;48.762;12.302;2022-08-26T05:57:06;97003.91;;;17.03;75.66
72210;BME280;60113;48.762;12.302;2022-08-26T05:59:32;97006.28;;;17.15;75.46
72210;BME280;60113;48.762;12.302;2022-08-26T06:02:00;96998.97;;;17.25;76.32
72210;BME280;60113;48.762;12.302;2022-08-26T06:04:27;97007.44;;;17.37;75.66
72210;BME280;60113;48.762;12.302;2022-08-26T06:06:53;97002.59;;;17.49;75.55
72210;BME280;60113;48.762;12.302;2022-08-26T06:09:18;97006.09;;;17.58;75.82
72210;BME280;60113;48.762;12.302;2022-08-26T06:11:44;97003.09;;;17.69;75.45
72210;BME280;60113;48.762;12.302;2022-08-26T06:14:09;97006.25;;;17.81;75.13
72210;BME280;60113;48.762;12.302;2022-08-26T06:16:38;97004.38;;;17.90;75.32
72210;BME280;60113;48.762;12.302;2022-08-26T06:19:06;97005.00;;;18.00;75.72
72210;BME280;60113;48.762;12.302;2022-08-26T06:21:34;97005.66;;;18.11;75.60
72210;BME280;60113;48.762;12.302;2022-08-26T06:24:03;97004.66;;;18.20;74.61
72210;BME280;60113;48.762;12.302;2022-08-26T06:26:50;97003.78;;;18.28;75.93
72210;BME280;60113;48.762;12.302;2022-08-26T06:29:19;97006.41;;;18.36;75.34
72210;BME280;60113;48.762;12.302;2022-08-26T06:31:45;97005.91;;;18.41;75.20
72210;BME280;60113;48.762;12.302;2022-08-26T06:34:10;97006.06;;;18.48;75.12
72210;BME280;60113;48.762;12.302;2022-08-26T06:36:36;97003.34;;;18.56;75.56
72210;BME280;60113;48.762;12.302;2022-08-26T06:39:06;96999.28;;;18.69;75.34
72210;BME280;60113;48.762;12.302;2022-08-26T06:41:32;97010.34;;;18.81;75.28
72210;BME280;60113;48.762;12.302;2022-08-26T06:43:59;97004.28;;;18.95;74.83
72210;BME280;60113;48.762;12.302;2022-08-26T06:46:26;97007.22;;;19.09;75.25
72210;BME280;60113;48.762;12.302;2022-08-26T06:48:52;96996.16;;;19.20;75.63
72210;BME280;60113;48.762;12.302;2022-08-26T06:51:21;97001.06;;;19.32;75.81
72210;BME280;60113;48.762;12.302;2022-08-26T06:53:48;97006.78;;;19.44;75.20
72210;BME280;60113;48.762;12.302;2022-08-26T06:56:18;97006.16;;;19.57;75.38
72210;BME280;60113;48.762;12.302;2022-08-26T06:58:44;97007.19;;;19.71;75.63
72210;BME280;60113;48.762;12.302;2022-08-26T07:01:24;97010.53;;;19.88;77.00
72210;BME280;60113;48.762;12.302;2022-08-26T07:03:51;97020.25;;;20.04;74.88
72210;BME280;60113;48.762;12.302;2022-08-26T07:06:17;97024.53;;;20.20;75.03
72210;BME280;60113;48.762;12.302;2022-08-26T07:08:47;97017.56;;;20.34;75.29
72210;BME280;60113;48.762;12.302;2022-08-26T07:11:14;97019.19;;;20.51;74.63
72210;BME280;60113;48.762;12.302;2022-08-26T07:13:40;97020.84;;;20.67;74.79
72210;BME280;60113;48.762;12.302;2022-08-26T07:16:07;97021.41;;;20.84;74.16
72210;BME280;60113;48.762;12.302;2022-08-26T07:18:34;97016.88;;;20.99;73.89
72210;BME280;60113;48.762;12.302;2022-08-26T07:21:05;97014.13;;;21.08;74.19
72210;BME280;60113;48.762;12.302;2022-08-26T07:23:32;97009.06;;;21.20;74.03
72210;BME280;60113;48.762;12.302;2022-08-26T07:25:58;97008.00;;;21.36;73.90
72210;BME280;60113;48.762;12.302;2022-08-26T07:28:24;97007.34;;;21.56;73.66
72210;BME280;60113;48.762;12.302;2022-08-26T07:30:50;97016.38;;;21.77;73.64
72210;BME280;60113;48.762;12.302;2022-08-26T07:33:16;97015.03;;;21.94;73.50
72210;BME280;60113;48.762;12.302;2022-08-26T07:35:43;97013.91;;;22.10;73.67
72210;BME280;60113;48.762;12.302;2022-08-26T07:38:10;97014.81;;;22.25;73.09
72210;BME280;60113;48.762;12.302;2022-08-26T07:40:36;97012.84;;;22.40;72.99
72210;BME280;60113;48.762;12.302;2022-08-26T07:43:02;97011.06;;;22.54;72.88
72210;BME280;60113;48.762;12.302;2022-08-26T07:45:28;97017.09;;;22.70;72.99
72210;BME280;60113;48.762;12.302;2022-08-26T07:47:54;97013.88;;;22.95;72.87
72210;BME280;60113;48.762;12.302;2022-08-26T07:50:20;97004.03;;;23.16;72.20
72210;BME280;60113;48.762;12.302;2022-08-26T07:52:47;97005.06;;;23.35;72.32
72210;BME280;60113;48.762;12.302;2022-08-26T07:55:12;97001.59;;;23.55;71.92
72210;BME280;60113;48.762;12.302;2022-08-26T07:57:38;97006.94;;;23.82;71.12
72210;BME280;60113;48.762;12.302;2022-08-26T08:00:05;97010.63;;;24.01;71.02
72210;BME280;60113;48.762;12.302;2022-08-26T08:02:31;97010.22;;;24.18;70.69
72210;BME280;60113;48.762;12.302;2022-08-26T08:04:57;97011.38;;;24.42;71.08
72210;BME280;60113;48.762;12.302;2022-08-26T08:07:24;97014.38;;;24.66;71.02
72210;BME280;60113;48.762;12.302;2022-08-26T08:09:50;97005.19;;;24.94;71.54
72210;BME280;60113;48.762;12.302;2022-08-26T08:12:17;97004.75;;;25.30;71.61
72210;BME280;60113;48.762;12.302;2022-08-26T08:14:43;97001.97;;;25.69;71.65
72210;BME280;60113;48.762;12.302;2022-08-26T08:17:11;96998.34;;;26.01;70.90
72210;BME280;60113;48.762;12.302;2022-08-26T08:19:37;96997.69;;;26.24;69.97
72210;BME280;60113;48.762;12.302;2022-08-26T08:22:03;96998.09;;;26.28;69.61
72210;BME280;60113;48.762;12.302;2022-08-26T08:24:33;96994.81;;;26.44;65.32
72210;BME280;60113;48.762;12.302;2022-08-26T08:27:02;96989.47;;;26.56;65.88
72210;BME280;60113;48.762;12.302;2022-08-26T08:29:28;96991.47;;;26.61;68.61
72210;BME280;60113;48.762;12.302;2022-08-26T08:31:57;96992.09;;;26.63;67.63
72210;BME280;60113;48.762;12.302;2022-08-26T08:34:25;96990.25;;;26.45;65.51
72210;BME280;60113;48.762;12.302;2022-08-26T08:36:52;96992.31;;;26.24;66.81
72210;BME280;60113;48.762;12.302;2022-08-26T08:39:17;96995.44;;;26.21;66.28
72210;BME280;60113;48.762;12.302;2022-08-26T08:44:19;96991.56;;;26.17;61.10
72210;BME280;60113;48.762;12.302;2022-08-26T08:46:49;96991.25;;;26.25;64.76
72210;BME280;60113;48.762;12.302;2022-08-26T08:49:16;96992.31;;;26.24;64.54
72210;BME280;60113;48.762;12.302;2022-08-26T08:54:20;96988.31;;;26.33;63.85
72210;BME280;60113;48.762;12.302;2022-08-26T08:56:52;96984.63;;;26.46;60.70
72210;BME280;60113;48.762;12.302;2022-08-26T08:59:23;96987.59;;;26.57;64.14
72210;BME280;60113;48.762;12.302;2022-08-26T09:06:55;96973.47;;;26.43;63.21
72210;BME280;60113;48.762;12.302;2022-08-26T09:09:35;96977.66;;;26.20;57.99
72210;BME280;60113;48.762;12.302;2022-08-26T09:12:02;96970.31;;;26.27;63.38
72210;BME280;60113;48.762;12.302;2022-08-26T09:14:30;96968.56;;;26.40;63.20
72210;BME280;60113;48.762;12.302;2022-08-26T09:19:53;96972.34;;;26.51;55.42
72210;BME280;60113;48.762;12.302;2022-08-26T09:22:30;96967.16;;;26.37;56.51
72210;BME280;60113;48.762;12.302;2022-08-26T09:24:56;96974.44;;;26.49;62.90
72210;BME280;60113;48.762;12.302;2022-08-26T09:27:40;96974.88;;;26.64;59.70
72210;BME280;60113;48.762;12.302;2022-08-26T09:30:08;96968.97;;;26.86;62.49
72210;BME280;60113;48.762;12.302;2022-08-26T09:32:34;96970.75;;;26.92;62.01
72210;BME280;60113;48.762;12.302;2022-08-26T09:35:03;96972.34;;;27.00;60.10
72210;BME280;60113;48.762;12.302;2022-08-26T09:37:40;96970.59;;;27.06;56.43
72210;BME280;60113;48.762;12.302;2022-08-26T09:42:37;96968.63;;;27.13;61.37
72210;BME280;60113;48.762;12.302;2022-08-26T09:45:06;96958.31;;;27.34;60.73
72210;BME280;60113;48.762;12.302;2022-08-26T09:50:19;96945.13;;;27.68;54.30
72210;BME280;60113;48.762;12.302;2022-08-26T09:53:03;96946.63;;;27.88;55.85
72210;BME280;60113;48.762;12.302;2022-08-26T09:55:29;96941.22;;;28.00;61.04
72210;BME280;60113;48.762;12.302;2022-08-26T09:57:55;96938.78;;;27.99;60.43
72210;BME280;60113;48.762;12.302;2022-08-26T10:00:33;96938.09;;;27.79;58.03
72210;BME280;60113;48.762;12.302;2022-08-26T10:03:02;96932.53;;;27.62;59.37
72210;BME280;60113;48.762;12.302;2022-08-26T10:05:33;96927.97;;;27.51;58.84
72210;BME280;60113;48.762;12.302;2022-08-26T10:08:16;96923.97;;;27.41;55.77
72210;BME280;60113;48.762;12.302;2022-08-26T10:10:45;96919.19;;;27.43;58.85
72210;BME280;60113;48.762;12.302;2022-08-26T10:13:22;96922.59;;;27.63;55.14
72210;BME280;60113;48.762;12.302;2022-08-26T10:15:57;96919.75;;;27.93;54.22
72210;BME280;60113;48.762;12.302;2022-08-26T10:18:29;96913.94;;;28.55;57.57
72210;BME280;60113;48.762;12.302;2022-08-26T10:21:14;96912.69;;;28.75;48.42
72210;BME280;60113;48.762;12.302;2022-08-26T10:23:45;96909.91;;;29.16;59.90
72210;BME280;60113;48.762;12.302;2022-08-26T10:26:20;96901.91;;;29.61;58.85
72210;BME280;60113;48.762;12.302;2022-08-26T10:29:00;96898.13;;;30.01;45.14
72210;BME280;60113;48.762;12.302;2022-08-26T10:31:40;96893.22;;;29.98;51.94
72210;BME280;60113;48.762;12.302;2022-08-26T10:34:09;96889.38;;;29.94;59.07
72210;BME280;60113;48.762;12.302;2022-08-26T10:36:39;96886.19;;;30.47;58.03
72210;BME280;60113;48.762;12.302;2022-08-26T10:41:48;96879.69;;;31.03;53.58
72210;BME280;60113;48.762;12.302;2022-08-26T10:44:16;96879.69;;;31.03;56.42
72210;BME280;60113;48.762;12.302;2022-08-26T10:46:55;96882.09;;;31.00;53.93
72210;BME280;60113;48.762;12.302;2022-08-26T10:49:23;96882.22;;;30.82;55.23
72210;BME280;60113;48.762;12.302;2022-08-26T10:51:51;96877.81;;;30.49;54.58
72210;BME280;60113;48.762;12.302;2022-08-26T10:57:14;96881.97;;;29.67;53.96
72210;BME280;60113;48.762;12.302;2022-08-26T11:00:15;96873.91;;;29.15;48.64
72210;BME280;60113;48.762;12.302;2022-08-26T11:05:34;96875.19;;;28.78;53.57
72210;BME280;60113;48.762;12.302;2022-08-26T11:08:26;96871.00;;;28.70;48.91
72210;BME280;60113;48.762;12.302;2022-08-26T11:10:56;96882.34;;;28.55;49.22
72210;BME280;60113;48.762;12.302;2022-08-26T11:14:41;96872.88;;;28.53;51.34
72210;BME280;60113;48.762;12.302;2022-08-26T11:16:47;96880.38;;;28.51;52.95
72210;BME280;60113;48.762;12.302;2022-08-26T11:22:08;96873.66;;;28.53;52.18
72210;BME280;60113;48.762;12.302;2022-08-26T11:25:00;96872.41;;;28.44;53.39
72210;BME280;60113;48.762;12.302;2022-08-26T11:40:16;96845.13;;;28.57;51.67
72210;BME280;60113;48.762;12.302;2022-08-26T11:42:46;96850.56;;;28.45;52.80
72210;BME280;60113;48.762;12.302;2022-08-26T11:45:31;96841.69;;;28.33;51.35
72210;BME280;60113;48.762;12.302;2022-08-26T11:48:12;96849.59;;;28.23;51.76
72210;BME280;60113;48.762;12.302;2022-08-26T11:50:38;96849.25;;;28.19;53.93
72210;BME280;60113;48.762;12.302;2022-08-26T11:53:04;96847.19;;;28.09;54.19
72210;BME280;60113;48.762;12.302;2022-08-26T11:55:33;96847.06;;;28.04;53.55
72210;BME280;60113;48.762;12.302;2022-08-26T11:58:02;96850.66;;;27.92;53.82
72210;BME280;60113;48.762;12.302;2022-08-26T12:00:31;96859.94;;;27.73;53.54
72210;BME280;60113;48.762;12.302;2022-08-26T12:03:00;96855.41;;;27.13;55.08
72210;BME280;60113;48.762;12.302;2022-08-26T12:05:30;96860.19;;;26.68;54.22
72210;BME280;60113;48.762;12.302;2022-08-26T12:08:01;96853.59;;;26.21;54.91
72210;BME280;60113;48.762;12.302;2022-08-26T12:10:31;96847.38;;;25.90;55.56
72210;BME280;60113;48.762;12.302;2022-08-26T12:12:59;96851.19;;;25.64;56.28
72210;BME280;60113;48.762;12.302;2022-08-26T12:15:26;96855.16;;;25.61;56.16
72210;BME280;60113;48.762;12.302;2022-08-26T12:17:52;96851.81;;;25.59;55.85
72210;BME280;60113;48.762;12.302;2022-08-26T12:20:35;96857.72;;;25.49;56.92
72210;BME280;60113;48.762;12.302;2022-08-26T12:23:22;96858.53;;;25.50;57.38
72210;BME280;60113;48.762;12.302;2022-08-26T12:25:50;96860.41;;;25.49;57.50
72210;BME280;60113;48.762;12.302;2022-08-26T12:28:16;96860.50;;;25.17;57.84
72210;BME280;60113;48.762;12.302;2022-08-26T12:31:01;96861.94;;;24.87;57.39
72210;BME280;60113;48.762;12.302;2022-08-26T12:33:32;96872.56;;;24.82;57.83
72210;BME280;60113;48.762;12.302;2022-08-26T12:36:00;96869.50;;;24.71;57.41
72210;BME280;60113;48.762;12.302;2022-08-26T12:38:27;96867.63;;;24.46;57.62
72210;BME280;60113;48.762;12.302;2022-08-26T12:40:54;96862.84;;;24.48;57.37
72210;BME280;60113;48.762;12.302;2022-08-26T12:43:43;96864.88;;;24.53;58.20
72210;BME280;60113;48.762;12.302;2022-08-26T12:46:27;96862.78;;;24.62;59.24
72210;BME280;60113;48.762;12.302;2022-08-26T12:48:53;96865.47;;;24.62;58.60
72210;BME280;60113;48.762;12.302;2022-08-26T12:51:28;96854.78;;;24.48;58.41
72210;BME280;60113;48.762;12.302;2022-08-26T12:53:54;96856.88;;;24.46;58.75
72210;BME280;60113;48.762;12.302;2022-08-26T12:56:25;96859.59;;;24.40;60.85
72210;BME280;60113;48.762;12.302;2022-08-26T13:01:45;96871.34;;;23.93;58.83
72210;BME280;60113;48.762;12.302;2022-08-26T13:07:24;96888.75;;;23.70;61.78
72210;BME280;60113;48.762;12.302;2022-08-26T13:09:52;96885.91;;;23.58;59.51
72210;BME280;60113;48.762;12.302;2022-08-26T13:12:33;96880.97;;;23.34;63.15
72210;BME280;60113;48.762;12.302;2022-08-26T13:15:00;96869.63;;;23.26;59.98
72210;BME280;60113;48.762;12.302;2022-08-26T13:17:27;96860.56;;;23.33;59.79
72210;BME280;60113;48.762;12.302;2022-08-26T13:19:53;96857.03;;;23.46;59.59
72210;BME280;60113;48.762;12.302;2022-08-26T13:22:21;96860.31;;;23.62;59.59
72210;BME280;60113;48.762;12.302;2022-08-26T13:24:49;96865.88;;;23.67;59.12
72210;BME280;60113;48.762;12.302;2022-08-26T13:27:17;96865.25;;;23.72;59.29
72210;BME280;60113;48.762;12.302;2022-08-26T13:29:44;96868.94;;;23.78;59.44
72210;BME280;60113;48.762;12.302;2022-08-26T13:32:11;96870.56;;;23.85;59.88
72210;BME280;60113;48.762;12.302;2022-08-26T13:34:36;96864.56;;;23.90;60.29
72210;BME280;60113;48.762;12.302;2022-08-26T13:37:02;96870.53;;;23.92;60.22
72210;BME280;60113;48.762;12.302;2022-08-26T13:39:28;96860.81;;;23.91;60.54
72210;BME280;60113;48.762;12.302;2022-08-26T13:41:54;96846.63;;;23.91;60.62
72210;BME280;60113;48.762;12.302;2022-08-26T13:44:20;96842.47;;;23.88;61.43
72210;BME280;60113;48.762;12.302;2022-08-26T13:46:46;96837.19;;;23.68;62.86
72210;BME280;60113;48.762;12.302;2022-08-26T13:49:12;96843.44;;;23.48;63.92